createdAt,value
2018-03-27T00:02:11.018Z,101676.70
2018-03-27T00:04:38.511Z,101681.77
2018-03-27T00:07:06.013Z,101677.56
2018-03-27T00:09:33.501Z,101679.26
2018-03-27T00:12:01.914Z,101688.28
2018-03-27T00:14:29.509Z,101688.06
2018-03-27T00:16:57.965Z,101689.38
2018-03-27T00:19:26.480Z,101691.77
2018-03-27T00:21:54.028Z,101687.83
2018-03-27T00:24:21.478Z,101682.36
2018-03-27T00:27:00.634Z,101686.73
2018-03-27T00:29:39.928Z,101689.95
2018-03-27T00:32:19.088Z,101694.63
2018-03-27T00:34:58.339Z,101694.86
2018-03-27T00:37:37.539Z,101693.44
2018-03-27T00:40:16.812Z,101689.33
2018-03-27T00:42:52.864Z,101691.56
2018-03-27T00:45:20.364Z,101687.37
2018-03-27T00:47:47.853Z,101689.02
2018-03-27T00:50:15.413Z,101686.11
2018-03-27T00:52:43.902Z,101687.64
2018-03-27T00:55:11.357Z,101686.19
2018-03-27T00:57:39.757Z,101696.79
2018-03-27T01:00:07.217Z,101694.45
2018-03-27T01:02:34.701Z,101690.71
2018-03-27T01:05:07.733Z,101691.52
2018-03-27T01:07:35.285Z,101691.91
2018-03-27T01:10:02.730Z,101691.33
2018-03-27T01:12:30.215Z,101685.04
2018-03-27T01:14:57.673Z,101688.77
2018-03-27T01:17:25.158Z,101684.59
2018-03-27T01:19:52.601Z,101683.12
2018-03-27T01:22:21.055Z,101681.63
2018-03-27T01:24:48.605Z,101687.89
2018-03-27T01:27:16.089Z,101680.80
2018-03-27T01:29:43.534Z,101682.67
2018-03-27T01:32:12.043Z,101685.70
2018-03-27T01:34:39.493Z,101682.44
2018-03-27T01:37:06.940Z,101678.09
2018-03-27T01:39:34.420Z,101678.58
2018-03-27T01:42:01.870Z,101680.70
2018-03-27T01:44:29.357Z,101681.30
2018-03-27T01:46:57.742Z,101684.81
2018-03-27T01:49:25.239Z,101687.76
2018-03-27T01:51:52.697Z,101689.39
2018-03-27T01:54:20.205Z,101675.43
2018-03-27T01:56:48.593Z,101680.06
2018-03-27T01:59:16.078Z,101668.16
2018-03-27T02:01:43.529Z,101670.00
2018-03-27T02:04:11.011Z,101673.41
2018-03-27T02:06:38.464Z,101671.88
2018-03-27T02:09:05.944Z,101671.39
2018-03-27T02:11:39.164Z,101680.42
2018-03-27T02:14:12.310Z,101664.45
2018-03-27T02:16:45.273Z,101666.39
2018-03-27T02:19:18.381Z,101667.02
2018-03-27T02:21:45.281Z,101662.27
2018-03-27T02:24:15.622Z,101663.05
2018-03-27T02:26:43.078Z,101660.34
2018-03-27T02:29:10.539Z,101655.10
2018-03-27T02:31:39.131Z,101649.22
2018-03-27T02:34:06.664Z,101656.73
2018-03-27T02:36:34.228Z,101661.00
2018-03-27T02:39:01.707Z,101653.77
2018-03-27T02:41:29.194Z,101651.30
2018-03-27T02:43:56.713Z,101646.41
2018-03-27T02:46:24.197Z,101651.95
2018-03-27T02:48:51.653Z,101655.77
2018-03-27T02:51:19.151Z,101646.03
2018-03-27T02:53:46.605Z,101647.30
2018-03-27T02:56:14.087Z,101662.41
2018-03-27T02:58:41.543Z,101665.20
2018-03-27T03:01:10.958Z,101662.52
2018-03-27T03:03:39.413Z,101661.47
2018-03-27T03:06:07.820Z,101666.29
2018-03-27T03:08:35.279Z,101666.89
2018-03-27T03:11:02.765Z,101658.05
2018-03-27T03:13:30.217Z,101655.67
2018-03-27T03:15:58.668Z,101656.34
2018-03-27T03:18:26.117Z,101657.51
2018-03-27T03:20:53.796Z,101653.34
2018-03-27T03:23:21.244Z,101653.81
2018-03-27T03:25:48.710Z,101650.34
2018-03-27T03:28:16.208Z,101652.00
2018-03-27T03:30:43.662Z,101649.87
2018-03-27T03:33:11.148Z,101658.70
2018-03-27T03:35:39.559Z,101653.77
2018-03-27T03:38:07.038Z,101646.61
2018-03-27T03:40:34.496Z,101650.02
2018-03-27T03:43:01.982Z,101643.88
2018-03-27T03:45:29.442Z,101652.36
2018-03-27T03:47:56.942Z,101647.91
2018-03-27T03:50:24.393Z,101646.46
2018-03-27T03:52:51.869Z,101641.43
2018-03-27T03:55:19.318Z,101644.02
2018-03-27T03:57:46.879Z,101636.52
2018-03-27T04:00:14.338Z,101639.28
2018-03-27T04:02:41.909Z,101647.17
2018-03-27T04:05:09.357Z,101644.82
2018-03-27T04:07:36.836Z,101642.42
2018-03-27T04:10:04.280Z,101648.42
2018-03-27T04:12:35.012Z,101639.80
2018-03-27T04:15:02.548Z,101643.97
2018-03-27T04:17:30.215Z,101652.27
2018-03-27T04:19:57.693Z,101648.19
2018-03-27T04:22:25.136Z,101638.72
2018-03-27T04:24:52.613Z,101636.52
2018-03-27T04:27:20.145Z,101639.43
2018-03-27T04:29:47.673Z,101641.43
2018-03-27T04:32:15.161Z,101633.00
2018-03-27T04:34:42.640Z,101634.30
2018-03-27T04:37:10.178Z,101631.50
2018-03-27T04:39:37.657Z,101625.94
2018-03-27T04:42:05.180Z,101625.53
2018-03-27T04:44:32.662Z,101629.06
2018-03-27T04:47:01.108Z,101622.26
2018-03-27T04:49:28.710Z,101622.81
2018-03-27T04:51:56.185Z,101618.61
2018-03-27T04:54:23.689Z,101618.59
2018-03-27T04:56:51.158Z,101620.89
2018-03-27T04:59:18.640Z,101625.73
2018-03-27T05:01:46.080Z,101622.81
2018-03-27T05:04:13.558Z,101626.59
2018-03-27T05:06:41.014Z,101628.77
2018-03-27T05:09:08.490Z,101612.45
2018-03-27T05:11:35.977Z,101618.67
2018-03-27T05:14:03.433Z,101620.45
2018-03-27T05:16:31.053Z,101615.47
2018-03-27T05:18:58.567Z,101611.33
2018-03-27T05:21:27.096Z,101611.48
2018-03-27T05:26:26.256Z,101619.13
2018-03-27T05:28:53.762Z,101619.58
2018-03-27T05:31:21.292Z,101619.58
2018-03-27T05:33:49.769Z,101615.12
2018-03-27T05:36:18.258Z,101614.61
2018-03-27T05:38:45.713Z,101615.28
2018-03-27T05:41:13.269Z,101615.80
2018-03-27T05:43:41.744Z,101609.81
2018-03-27T05:46:09.233Z,101613.17
2018-03-27T05:48:36.710Z,101619.38
2018-03-27T05:51:04.225Z,101616.99
2018-03-27T05:53:32.585Z,101618.70
2018-03-27T05:56:00.128Z,101611.41
2018-03-27T05:58:27.539Z,101619.33
2018-03-27T06:00:55.081Z,101613.88
2018-03-27T06:03:22.533Z,101614.13
2018-03-27T06:05:50.025Z,101616.99
2018-03-27T06:08:17.489Z,101613.98
2018-03-27T06:10:45.113Z,101610.52
2018-03-27T06:13:12.570Z,101611.55
2018-03-27T06:15:41.014Z,101610.16
2018-03-27T06:18:08.491Z,101612.41
2018-03-27T06:20:35.940Z,101606.77
2018-03-27T06:23:04.437Z,101606.47
2018-03-27T06:25:31.900Z,101606.39
2018-03-27T06:27:59.373Z,101608.48
2018-03-27T06:30:26.828Z,101606.70
2018-03-27T06:32:54.327Z,101603.13
2018-03-27T06:35:21.785Z,101601.79
2018-03-27T06:37:49.260Z,101600.75
2018-03-27T06:40:16.712Z,101608.50
2018-03-27T06:42:44.205Z,101603.22
2018-03-27T06:45:11.660Z,101604.38
2018-03-27T06:47:39.145Z,101609.50
2018-03-27T06:50:06.617Z,101607.72
2018-03-27T06:52:34.101Z,101612.16
2018-03-27T06:55:01.563Z,101611.91
2018-03-27T06:57:29.061Z,101612.78
2018-03-27T06:59:56.517Z,101606.95
2018-03-27T07:02:26.021Z,101613.25
2018-03-27T07:04:53.492Z,101612.48
2018-03-27T07:07:21.016Z,101607.02
2018-03-27T07:09:48.502Z,101604.02
2018-03-27T07:12:15.956Z,101602.63
2018-03-27T07:14:43.501Z,101608.96
2018-03-27T07:17:11.056Z,101606.27
2018-03-27T07:19:38.556Z,101606.62
2018-03-27T07:22:06.013Z,101600.28
2018-03-27T07:24:33.502Z,101602.64
2018-03-27T07:27:01.021Z,101602.27
2018-03-27T07:29:28.492Z,101601.69
2018-03-27T07:31:56.902Z,101596.53
2018-03-27T07:34:24.394Z,101596.77
2018-03-27T07:36:51.856Z,101592.34
2018-03-27T07:39:19.348Z,101597.09
2018-03-27T07:41:46.841Z,101594.60
2018-03-27T07:44:14.418Z,101595.87
2018-03-27T07:46:41.885Z,101596.52
2018-03-27T07:49:09.376Z,101599.02
2018-03-27T07:51:36.836Z,101597.34
2018-03-27T07:54:04.293Z,101600.82
2018-03-27T07:56:31.853Z,101587.81
2018-03-27T07:58:59.313Z,101601.27
2018-03-27T08:01:27.826Z,101601.15
2018-03-27T08:03:55.283Z,101595.54
2018-03-27T08:06:22.765Z,101597.66
2018-03-27T08:08:50.297Z,101599.69
2018-03-27T08:11:18.799Z,101596.20
2018-03-27T08:13:47.160Z,101588.00
2018-03-27T08:16:14.660Z,101595.07
2018-03-27T08:18:42.117Z,101599.05
2018-03-27T08:21:09.602Z,101598.33
2018-03-27T08:23:37.052Z,101591.98
2018-03-27T08:26:05.431Z,101591.53
2018-03-27T08:28:33.820Z,101589.14
2018-03-27T08:31:01.385Z,101589.25
2018-03-27T08:33:28.823Z,101584.20
2018-03-27T08:35:56.300Z,101581.12
2018-03-27T08:38:25.701Z,101584.91
2018-03-27T08:40:53.192Z,101579.38
2018-03-27T08:43:20.652Z,101579.16
2018-03-27T08:45:55.424Z,101575.80
2018-03-27T08:48:22.888Z,101577.00
2018-03-27T08:50:50.337Z,101576.95
2018-03-27T08:53:21.685Z,101581.40
2018-03-27T08:55:49.162Z,101578.52
2018-03-27T08:58:16.649Z,101583.63
2018-03-27T09:00:44.350Z,101581.00
2018-03-27T09:03:11.814Z,101579.64
2018-03-27T09:05:39.261Z,101576.73
2018-03-27T09:08:06.753Z,101571.97
2018-03-27T09:10:34.217Z,101569.09
2018-03-27T09:13:01.701Z,101571.28
2018-03-27T09:15:30.153Z,101567.23
2018-03-27T09:17:57.642Z,101562.39
2018-03-27T09:20:25.097Z,101559.11
2018-03-27T09:22:52.602Z,101554.30
2018-03-27T09:25:20.084Z,101553.98
2018-03-27T09:27:47.585Z,101553.03
2018-03-27T09:30:15.046Z,101551.38
2018-03-27T09:32:42.537Z,101552.84
2018-03-27T09:35:10.001Z,101552.56
2018-03-27T09:37:40.875Z,101548.53
2018-03-27T09:40:09.309Z,101544.22
2018-03-27T09:42:36.801Z,101542.22
2018-03-27T09:45:04.301Z,101540.06
2018-03-27T09:47:31.764Z,101542.28
2018-03-27T09:49:59.269Z,101534.81
2018-03-27T09:52:26.725Z,101534.38
2018-03-27T09:54:54.292Z,101533.77
2018-03-27T09:57:21.749Z,101523.76
2018-03-27T09:59:49.237Z,101533.22
2018-03-27T10:02:17.319Z,101526.16
2018-03-27T10:04:45.037Z,101522.69
2018-03-27T10:07:12.498Z,101520.49
2018-03-27T10:09:40.005Z,101519.44
2018-03-27T10:12:07.463Z,101525.49
2018-03-27T10:14:34.966Z,101518.95
2018-03-27T10:17:02.536Z,101522.25
2018-03-27T10:19:30.031Z,101525.08
2018-03-27T10:21:57.497Z,101533.88
2018-03-27T10:24:24.999Z,101530.48
2018-03-27T10:26:52.457Z,101527.61
2018-03-27T10:29:19.989Z,101528.86
2018-03-27T10:31:47.450Z,101525.95
2018-03-27T10:34:15.836Z,101517.39
2018-03-27T10:36:43.345Z,101515.16
2018-03-27T10:39:10.845Z,101507.10
2018-03-27T10:41:38.353Z,101514.38
2018-03-27T10:44:05.825Z,101506.88
2018-03-27T10:46:33.317Z,101507.45
2018-03-27T10:49:00.849Z,101511.25
2018-03-27T10:51:28.406Z,101509.11
2018-03-27T10:53:55.861Z,101503.65
2018-03-27T10:56:24.349Z,101495.41
2018-03-27T10:58:51.797Z,101496.42
2018-03-27T11:01:19.272Z,101504.45
2018-03-27T11:03:46.781Z,101501.42
2018-03-27T11:06:14.213Z,101510.16
2018-03-27T11:08:41.845Z,101517.25
2018-03-27T11:11:09.405Z,101507.75
2018-03-27T11:13:36.880Z,101507.78
2018-03-27T11:16:04.381Z,101503.92
2018-03-27T11:18:33.789Z,101498.84
2018-03-27T11:21:01.276Z,101499.78
2018-03-27T11:23:29.713Z,101502.50
2018-03-27T11:25:58.126Z,101499.08
2018-03-27T11:28:25.582Z,101494.80
2018-03-27T11:30:53.146Z,101491.50
2018-03-27T11:33:20.651Z,101491.59
2018-03-27T11:35:48.113Z,101487.57
2018-03-27T11:38:16.569Z,101488.02
2018-03-27T11:40:44.029Z,101476.21
2018-03-27T11:43:11.558Z,101479.14
2018-03-27T11:45:39.016Z,101483.58
2018-03-27T11:48:06.505Z,101480.69
2018-03-27T11:50:33.975Z,101482.79
2018-03-27T11:53:01.478Z,101480.77
2018-03-27T11:55:29.040Z,101475.98
2018-03-27T11:57:56.537Z,101472.61
2018-03-27T12:00:25.021Z,101465.31
2018-03-27T12:02:53.473Z,101459.95
2018-03-27T12:05:20.940Z,101460.84
2018-03-27T12:07:48.579Z,101455.28
2018-03-27T12:10:16.042Z,101454.16
2018-03-27T12:12:43.526Z,101441.19
2018-03-27T12:15:10.985Z,101439.89
2018-03-27T12:17:38.493Z,101434.78
2018-03-27T12:20:05.982Z,101433.54
2018-03-27T12:22:34.413Z,101431.19
2018-03-27T12:25:03.858Z,101431.52
2018-03-27T12:27:31.328Z,101424.47
2018-03-27T12:29:58.825Z,101423.06
2018-03-27T12:32:26.286Z,101414.34
2018-03-27T12:34:53.790Z,101416.81
2018-03-27T12:37:21.266Z,101420.92
2018-03-27T12:39:48.758Z,101410.29
2018-03-27T12:42:16.226Z,101401.42
2018-03-27T12:44:43.731Z,101400.13
2018-03-27T12:47:11.194Z,101395.20
2018-03-27T12:49:38.686Z,101391.98
2018-03-27T12:52:06.137Z,101381.88
2018-03-27T12:54:34.552Z,101375.30
2018-03-27T12:57:03.030Z,101384.53
2018-03-27T12:59:30.529Z,101379.37
2018-03-27T13:01:58.005Z,101378.09
2018-03-27T13:04:25.506Z,101367.64
2018-03-27T13:06:52.970Z,101370.55
2018-03-27T13:09:20.478Z,101371.75
2018-03-27T13:11:47.995Z,101372.25
2018-03-27T13:14:16.358Z,101370.54
2018-03-27T13:16:43.839Z,101361.95
2018-03-27T13:19:11.378Z,101356.73
2018-03-27T13:21:38.862Z,101365.31
2018-03-27T13:24:06.321Z,101353.37
2018-03-27T13:26:33.813Z,101349.19
2018-03-27T13:29:01.283Z,101350.73
2018-03-27T13:31:29.702Z,101349.84
2018-03-27T13:33:57.167Z,101351.76
2018-03-27T13:36:25.626Z,101351.20
2018-03-27T13:38:53.105Z,101351.58
2018-03-27T13:41:20.583Z,101345.91
2018-03-27T13:43:48.057Z,101346.08
2018-03-27T13:46:15.619Z,101344.16
2018-03-27T13:48:44.021Z,101354.84
2018-03-27T13:51:11.520Z,101349.81
2018-03-27T13:53:38.985Z,101348.17
2018-03-27T13:56:07.441Z,101343.05
2018-03-27T13:58:34.902Z,101341.39
2018-03-27T14:01:02.425Z,101337.75
2018-03-27T14:03:29.878Z,101338.08
2018-03-27T14:05:57.369Z,101330.88
2018-03-27T14:08:24.821Z,101334.03
2018-03-27T14:10:52.274Z,101335.70
2018-03-27T14:13:19.824Z,101332.95
2018-03-27T14:15:47.280Z,101323.98
2018-03-27T14:18:15.758Z,101321.41
2018-03-27T14:20:43.210Z,101329.94
2018-03-27T14:23:10.701Z,101317.45
2018-03-27T14:25:38.236Z,101318.17
2018-03-27T14:28:05.788Z,101322.91
2018-03-27T14:30:33.279Z,101311.98
2018-03-27T14:33:00.737Z,101310.31
2018-03-27T14:35:28.192Z,101311.25
2018-03-27T14:37:55.678Z,101306.97
2018-03-27T14:40:24.006Z,101304.16
2018-03-27T14:42:51.850Z,101304.06
2018-03-27T14:45:19.292Z,101297.69
2018-03-27T14:47:46.790Z,101302.55
2018-03-27T14:50:14.341Z,101296.99
2018-03-27T14:52:41.830Z,101293.92
2018-03-27T14:55:09.277Z,101291.92
2018-03-27T14:57:38.699Z,101292.55
2018-03-27T15:00:06.186Z,101286.07
2018-03-27T15:02:33.697Z,101288.27
2018-03-27T15:05:01.146Z,101288.20
2018-03-27T15:07:28.601Z,101283.20
2018-03-27T15:09:56.831Z,101284.00
2018-03-27T15:12:25.220Z,101284.70
2018-03-27T15:14:52.705Z,101293.77
2018-03-27T15:17:21.226Z,101282.86
2018-03-27T15:19:48.759Z,101281.78
2018-03-27T15:22:16.217Z,101276.48
2018-03-27T15:24:43.798Z,101276.02
2018-03-27T15:27:11.287Z,101276.80
2018-03-27T15:29:38.782Z,101268.53
2018-03-27T15:32:06.344Z,101270.65
2018-03-27T15:34:33.844Z,101264.67
2018-03-27T15:37:02.225Z,101267.14
2018-03-27T15:39:29.733Z,101258.27
2018-03-27T15:41:58.173Z,101260.66
2018-03-27T15:44:25.714Z,101254.75
2018-03-27T15:46:53.194Z,101258.66
2018-03-27T15:49:21.684Z,101254.41
2018-03-27T15:51:50.131Z,101254.47
2018-03-27T15:54:17.638Z,101250.97
2018-03-27T15:56:45.155Z,101244.05
2018-03-27T15:59:12.661Z,101246.53
2018-03-27T16:01:40.367Z,101244.25
2018-03-27T16:04:07.869Z,101236.16
2018-03-27T16:06:35.366Z,101231.38
2018-03-27T16:09:02.870Z,101226.89
2018-03-27T16:11:30.375Z,101227.98
2018-03-27T16:13:57.883Z,101229.23
2018-03-27T16:16:25.377Z,101225.79
2018-03-27T16:18:52.840Z,101228.17
2018-03-27T16:21:20.375Z,101218.22
2018-03-27T16:23:47.855Z,101221.52
2018-03-27T16:26:15.344Z,101221.35
2018-03-27T16:28:42.813Z,101216.34
2018-03-27T16:31:10.317Z,101214.38
2018-03-27T16:33:38.794Z,101211.55
2018-03-27T16:36:06.290Z,101207.03
2018-03-27T16:38:33.754Z,101207.45
2018-03-27T16:41:01.294Z,101202.34
2018-03-27T16:43:28.772Z,101204.58
2018-03-27T16:45:56.542Z,101201.46
2018-03-27T16:48:24.051Z,101199.11
2018-03-27T16:50:51.517Z,101200.20
2018-03-27T16:53:19.013Z,101202.49
2018-03-27T16:55:46.470Z,101201.80
2018-03-27T16:58:13.969Z,101207.33
2018-03-27T17:00:43.365Z,101203.57
2018-03-27T17:03:10.980Z,101202.34
2018-03-27T17:05:38.440Z,101207.34
2018-03-27T17:08:06.936Z,101195.05
2018-03-27T17:10:36.347Z,101194.45
2018-03-27T17:13:03.852Z,101189.31
2018-03-27T17:15:31.308Z,101193.04
2018-03-27T17:17:59.004Z,101189.49
2018-03-27T17:20:26.462Z,101196.19
2018-03-27T17:22:55.866Z,101193.30
2018-03-27T17:25:23.355Z,101195.39
2018-03-27T17:27:50.856Z,101196.37
2018-03-27T17:30:18.556Z,101196.09
2018-03-27T17:32:46.091Z,101205.42
2018-03-27T17:35:13.560Z,101202.95
2018-03-27T17:37:41.069Z,101203.29
2018-03-27T17:40:08.530Z,101203.95
2018-03-27T17:42:36.034Z,101196.97
2018-03-27T17:45:03.492Z,101200.21
2018-03-27T17:47:31.012Z,101197.17
2018-03-27T17:49:59.400Z,101201.16
2018-03-27T17:52:26.856Z,101204.55
2018-03-27T17:54:54.333Z,101203.95
2018-03-27T17:57:21.833Z,101197.06
2018-03-27T17:59:49.337Z,101193.72
2018-03-27T18:02:16.785Z,101206.64
2018-03-27T18:04:45.384Z,101202.00
2018-03-27T18:07:12.832Z,101200.05
2018-03-27T18:09:40.317Z,101208.02
2018-03-27T18:12:07.777Z,101209.48
2018-03-27T18:14:35.325Z,101208.41
2018-03-27T18:17:02.784Z,101204.33
2018-03-27T18:19:30.289Z,101208.55
2018-03-27T18:21:57.747Z,101202.58
2018-03-27T18:24:25.257Z,101203.53
2018-03-27T18:26:52.717Z,101199.02
2018-03-27T18:29:20.196Z,101205.91
2018-03-27T18:31:47.661Z,101203.86
2018-03-27T18:34:15.162Z,101205.98
2018-03-27T18:36:42.664Z,101205.05
2018-03-27T18:39:11.117Z,101207.51
2018-03-27T18:41:38.607Z,101193.36
2018-03-27T18:44:06.069Z,101197.17
2018-03-27T18:46:33.624Z,101196.14
2018-03-27T18:49:01.090Z,101205.63
2018-03-27T18:51:28.645Z,101199.42
2018-03-27T18:53:56.113Z,101198.86
2018-03-27T18:56:23.607Z,101194.84
2018-03-27T18:58:51.113Z,101193.34
2018-03-27T19:01:18.626Z,101190.02
2018-03-27T19:03:46.086Z,101195.10
2018-03-27T19:06:13.577Z,101195.61
2018-03-27T19:08:41.056Z,101201.72
2018-03-27T19:11:08.633Z,101195.86
2018-03-27T19:13:36.088Z,101192.21
2018-03-27T19:16:03.573Z,101193.36
2018-03-27T19:18:31.180Z,101192.78
2018-03-27T19:20:59.689Z,101187.73
2018-03-27T19:23:27.171Z,101187.32
2018-03-27T19:25:54.657Z,101187.60
2018-03-27T19:28:22.105Z,101181.53
2018-03-27T19:30:49.698Z,101188.03
2018-03-27T19:33:17.162Z,101181.45
2018-03-27T19:35:44.649Z,101177.98
2018-03-27T19:38:12.163Z,101180.98
2018-03-27T19:40:39.693Z,101176.25
2018-03-27T19:43:07.172Z,101171.24
2018-03-27T19:45:34.637Z,101171.66
2018-03-27T19:48:02.134Z,101175.92
2018-03-27T19:50:29.592Z,101171.56
2018-03-27T19:52:57.066Z,101168.77
2018-03-27T19:55:24.530Z,101164.47
2018-03-27T19:57:52.029Z,101165.03
2018-03-27T20:00:19.482Z,101172.67
2018-03-27T20:02:46.969Z,101169.76
2018-03-27T20:05:14.443Z,101164.28
2018-03-27T20:07:41.971Z,101158.98
2018-03-27T20:10:09.424Z,101162.56
2018-03-27T20:12:36.913Z,101156.31
2018-03-27T20:15:04.402Z,101156.27
2018-03-27T20:17:31.888Z,101148.38
2018-03-27T20:19:59.370Z,101154.17
2018-03-27T20:22:26.895Z,101148.79
2018-03-27T20:24:54.353Z,101154.78
2018-03-27T20:27:21.852Z,101155.39
2018-03-27T20:29:49.424Z,101154.92
2018-03-27T20:32:16.937Z,101151.96
2018-03-27T20:34:44.489Z,101154.56
2018-03-27T20:37:12.994Z,101156.83
2018-03-27T20:39:40.569Z,101156.14
2018-03-27T20:42:08.022Z,101157.44
2018-03-27T20:44:35.559Z,101156.14
2018-03-27T20:47:03.280Z,101152.53
2018-03-27T20:49:30.849Z,101152.20
2018-03-27T20:52:00.297Z,101153.30
2018-03-27T20:54:29.292Z,101151.05
2018-03-27T20:56:56.764Z,101144.69
2018-03-27T20:59:24.249Z,101148.16
2018-03-27T21:01:51.728Z,101152.11
2018-03-27T21:04:19.826Z,101146.17
2018-03-27T21:06:47.383Z,101141.12
2018-03-27T21:09:14.885Z,101142.36
2018-03-27T21:11:42.341Z,101136.57
2018-03-27T21:14:09.858Z,101133.27
2018-03-27T21:16:40.098Z,101130.67
2018-03-27T21:19:07.568Z,101128.08
2018-03-27T21:21:35.065Z,101124.19
2018-03-27T21:24:02.514Z,101124.60
2018-03-27T21:26:30.000Z,101123.41
2018-03-27T21:28:57.461Z,101120.11
2018-03-27T21:31:24.981Z,101119.59
2018-03-27T21:33:52.440Z,101126.68
2018-03-27T21:36:19.934Z,101125.77
2018-03-27T21:38:48.380Z,101123.77
2018-03-27T21:41:16.800Z,101121.63
2018-03-27T21:43:44.367Z,101116.50
2018-03-27T21:46:11.881Z,101114.27
2018-03-27T21:48:39.346Z,101116.30
2018-03-27T21:51:06.828Z,101117.75
2018-03-27T21:53:34.989Z,101113.61
2018-03-27T21:56:02.470Z,101108.92
2018-03-27T21:58:31.759Z,101106.98
2018-03-27T22:00:59.276Z,101106.28
2018-03-27T22:03:41.614Z,101100.84
2018-03-27T22:06:09.116Z,101103.02
2018-03-27T22:08:36.575Z,101097.22
2018-03-27T22:11:05.066Z,101096.53
2018-03-27T22:13:32.528Z,101096.44
2018-03-27T22:16:00.205Z,101091.43
2018-03-27T22:18:27.683Z,101088.80
2018-03-27T22:20:55.240Z,101082.72
2018-03-27T22:23:22.752Z,101090.59
2018-03-27T22:25:50.204Z,101087.57
2018-03-27T22:28:17.702Z,101090.72
2018-03-27T22:30:47.148Z,101088.94
2018-03-27T22:33:14.807Z,101083.09
2018-03-27T22:35:42.308Z,101082.39
2018-03-27T22:38:10.000Z,101071.27
2018-03-27T22:40:37.500Z,101073.95
2018-03-27T22:43:06.908Z,101069.18
2018-03-27T22:45:34.365Z,101063.01
2018-03-27T22:48:01.849Z,101065.25
2018-03-27T22:50:29.446Z,101059.98
2018-03-27T22:52:57.051Z,101054.33
2018-03-27T22:55:24.552Z,101056.22
2018-03-27T22:57:52.097Z,101054.14
2018-03-27T23:00:21.477Z,101053.80
2018-03-27T23:02:48.986Z,101054.98
2018-03-27T23:05:16.662Z,101050.14
2018-03-27T23:07:44.194Z,101047.95
2018-03-27T23:10:11.684Z,101045.76
2018-03-27T23:12:39.236Z,101046.86
2018-03-27T23:15:06.794Z,101041.27
2018-03-27T23:17:34.242Z,101039.21
2018-03-27T23:20:01.790Z,101035.59
2018-03-27T23:22:31.379Z,101027.50
2018-03-27T23:24:58.863Z,101031.87
2018-03-27T23:27:26.312Z,101025.16
2018-03-27T23:29:53.844Z,101029.83
2018-03-27T23:32:21.312Z,101028.24
2018-03-27T23:34:48.809Z,101025.57
2018-03-27T23:37:16.258Z,101024.55
2018-03-27T23:39:46.017Z,101020.91
2018-03-27T23:42:13.483Z,101022.57
2018-03-27T23:44:40.973Z,101027.23
2018-03-27T23:47:08.432Z,101023.62
2018-03-27T23:49:35.921Z,101025.70
2018-03-27T23:52:03.383Z,101027.58
2018-03-27T23:54:30.908Z,101024.09
2018-03-27T23:56:58.329Z,101018.09
2018-03-27T23:59:25.808Z,101016.36
